createdAt,value
2022-08-21T00:00:19.193Z,21.99
2022-08-21T00:02:49.929Z,21.99
2022-08-21T00:05:18.134Z,21.99
2022-08-21T00:07:45.799Z,21.88
2022-08-21T00:10:14.126Z,22.06
2022-08-21T00:12:41.907Z,22.01
2022-08-21T00:15:11.888Z,22.48
2022-08-21T00:17:39.646Z,22.33
2022-08-21T00:20:09.874Z,22.38
2022-08-21T00:22:37.659Z,22.12
2022-08-21T00:25:07.084Z,22.20
2022-08-21T00:27:34.987Z,22.21
2022-08-21T00:30:04.420Z,22.32
2022-08-21T00:32:31.810Z,22.29
2022-08-21T00:34:59.196Z,22.19
2022-08-21T00:37:26.519Z,21.99
2022-08-21T00:39:54.368Z,22.19
2022-08-21T00:42:21.788Z,22.05
2022-08-21T00:44:51.439Z,22.33
2022-08-21T00:47:20.142Z,22.31
2022-08-21T00:49:47.801Z,22.18
2022-08-21T00:52:23.648Z,22.52
2022-08-21T00:54:53.413Z,22.36
2022-08-21T00:57:29.505Z,22.45
2022-08-21T01:00:01.626Z,22.27
2022-08-21T01:02:29.380Z,22.24
2022-08-21T01:04:58.647Z,22.35
2022-08-21T01:07:27.638Z,22.34
2022-08-21T01:09:55.205Z,22.44
2022-08-21T01:12:22.620Z,22.48
2022-08-21T01:14:50.313Z,22.59
2022-08-21T01:17:19.762Z,22.53
2022-08-21T01:19:47.013Z,22.43
2022-08-21T01:22:14.656Z,22.51
2022-08-21T01:24:42.147Z,22.65
2022-08-21T01:27:09.469Z,23.00
2022-08-21T01:30:20.802Z,22.96
2022-08-21T01:32:49.547Z,22.66
2022-08-21T01:35:18.347Z,22.53
2022-08-21T01:37:46.799Z,22.62
2022-08-21T01:40:17.682Z,22.65
2022-08-21T01:42:46.840Z,22.61
2022-08-21T01:45:17.192Z,22.61
2022-08-21T01:47:45.796Z,22.37
2022-08-21T01:50:16.474Z,22.41
2022-08-21T01:52:43.855Z,22.48
2022-08-21T01:55:13.653Z,22.48
2022-08-21T01:57:41.126Z,22.55
2022-08-21T02:00:12.158Z,22.62
2022-08-21T02:02:41.981Z,22.57
2022-08-21T02:05:11.409Z,22.52
2022-08-21T02:07:43.865Z,22.55
2022-08-21T02:10:13.646Z,22.46
2022-08-21T02:12:40.904Z,22.56
2022-08-21T02:15:10.474Z,22.65
2022-08-21T02:17:45.779Z,22.73
2022-08-21T02:20:18.879Z,22.78
2022-08-21T02:22:46.200Z,22.59
2022-08-21T02:25:13.804Z,23.22
2022-08-21T02:27:47.795Z,23.09
2022-08-21T02:30:19.554Z,22.56
2022-08-21T02:32:46.898Z,22.43
2022-08-21T02:35:14.841Z,22.53
2022-08-21T02:37:48.528Z,21.99
2022-08-21T02:40:18.458Z,21.95
2022-08-21T02:42:45.932Z,21.93
2022-08-21T02:45:14.574Z,21.76
2022-08-21T02:47:49.303Z,21.64
2022-08-21T02:50:21.549Z,21.64
2022-08-21T02:52:48.802Z,21.85
2022-08-21T02:55:19.644Z,21.98
2022-08-21T02:57:47.033Z,22.04
2022-08-21T03:00:14.755Z,22.15
2022-08-21T03:02:42.141Z,22.36
2022-08-21T03:05:11.870Z,22.17
2022-08-21T03:07:40.451Z,22.14
2022-08-21T03:10:08.964Z,22.23
2022-08-21T03:12:36.674Z,22.07
2022-08-21T03:15:12.862Z,22.23
2022-08-21T03:17:40.683Z,22.08
2022-08-21T03:20:09.723Z,22.09
2022-08-21T03:22:37.031Z,22.17
2022-08-21T03:25:05.333Z,22.46
2022-08-21T03:27:35.111Z,22.45
2022-08-21T03:30:05.470Z,22.46
2022-08-21T03:32:33.005Z,22.45
2022-08-21T03:35:01.330Z,22.50
2022-08-21T03:37:28.975Z,22.70
2022-08-21T03:39:56.429Z,22.67
2022-08-21T03:42:24.408Z,22.69
2022-08-21T03:44:52.186Z,22.61
2022-08-21T03:47:19.522Z,22.79
2022-08-21T03:49:46.732Z,22.66
2022-08-21T03:52:14.092Z,22.49
2022-08-21T03:54:42.381Z,22.53
2022-08-21T03:57:10.338Z,22.55
2022-08-21T03:59:38.784Z,22.71
2022-08-21T04:02:07.750Z,22.74
2022-08-21T04:04:35.551Z,22.84
2022-08-21T04:07:03.732Z,22.83
2022-08-21T04:09:31.439Z,22.77
2022-08-21T04:12:00.125Z,22.66
2022-08-21T04:14:27.540Z,22.72
2022-08-21T04:16:54.937Z,22.67
2022-08-21T04:19:22.248Z,22.65
2022-08-21T04:21:50.666Z,22.68
2022-08-21T04:24:20.413Z,22.72
2022-08-21T04:26:48.215Z,22.64
2022-08-21T04:29:15.537Z,22.53
2022-08-21T04:31:44.562Z,22.52
2022-08-21T04:34:11.831Z,22.56
2022-08-21T04:36:39.065Z,22.54
2022-08-21T04:39:06.551Z,22.52
2022-08-21T04:41:37.550Z,22.46
2022-08-21T04:44:05.497Z,22.54
2022-08-21T04:46:32.715Z,22.44
2022-08-21T04:49:00.360Z,22.34
2022-08-21T04:51:36.110Z,22.25
2022-08-21T04:54:15.611Z,22.31
2022-08-21T04:56:52.269Z,22.32
2022-08-21T04:59:24.493Z,22.23
2022-08-21T05:01:52.931Z,22.26
2022-08-21T05:04:25.061Z,22.44
2022-08-21T05:06:56.322Z,22.42
2022-08-21T05:09:24.888Z,22.36
2022-08-21T05:11:54.038Z,22.81
2022-08-21T05:14:21.424Z,22.72
2022-08-21T05:16:49.436Z,22.53
2022-08-21T05:19:16.776Z,22.68
2022-08-21T05:21:46.735Z,22.96
2022-08-21T05:24:14.009Z,22.90
2022-08-21T05:26:46.511Z,22.79
2022-08-21T05:29:16.386Z,22.70
2022-08-21T05:31:46.084Z,22.66
2022-08-21T05:34:17.030Z,22.56
2022-08-21T05:36:45.958Z,22.49
2022-08-21T05:39:13.465Z,22.79
2022-08-21T05:41:41.016Z,22.82
2022-08-21T05:44:10.060Z,22.78
2022-08-21T05:46:38.910Z,22.86
2022-08-21T05:49:06.237Z,22.84
2022-08-21T05:51:33.478Z,22.96
2022-08-21T05:54:00.767Z,22.95
2022-08-21T05:56:28.194Z,23.05
2022-08-21T05:58:56.587Z,23.25
2022-08-21T06:01:23.986Z,23.11
2022-08-21T06:03:51.363Z,23.23
2022-08-21T06:06:18.833Z,23.25
2022-08-21T06:08:47.033Z,23.24
2022-08-21T06:11:14.516Z,23.34
2022-08-21T06:13:42.652Z,23.26
2022-08-21T06:16:16.045Z,23.33
2022-08-21T06:18:45.066Z,23.40
2022-08-21T06:21:14.450Z,23.33
2022-08-21T06:23:42.791Z,23.45
2022-08-21T06:26:12.532Z,23.46
2022-08-21T06:28:40.325Z,23.85
2022-08-21T06:31:20.283Z,23.56
2022-08-21T06:33:48.479Z,23.40
2022-08-21T06:36:38.056Z,23.28
2022-08-21T06:39:16.530Z,23.12
2022-08-21T06:41:53.241Z,23.21
2022-08-21T06:44:25.406Z,22.98
2022-08-21T06:46:52.685Z,23.01
2022-08-21T06:49:21.584Z,23.76
2022-08-21T06:51:49.196Z,23.66
2022-08-21T06:54:16.509Z,23.10
2022-08-21T06:56:43.722Z,23.01
2022-08-21T06:59:11.066Z,23.07
2022-08-21T07:01:38.352Z,22.96
2022-08-21T07:04:05.976Z,22.91
2022-08-21T07:06:34.021Z,23.01
2022-08-21T07:09:03.408Z,23.41
2022-08-21T07:11:30.998Z,23.28
2022-08-21T07:14:04.391Z,23.10
2022-08-21T07:16:31.819Z,23.13
2022-08-21T07:18:59.085Z,23.50
2022-08-21T07:21:26.476Z,23.45
2022-08-21T07:23:55.653Z,23.42
2022-08-21T07:26:26.994Z,23.57
2022-08-21T07:28:54.748Z,23.38
2022-08-21T07:31:25.512Z,23.58
2022-08-21T07:33:53.187Z,23.59
2022-08-21T07:36:23.295Z,23.83
2022-08-21T07:38:52.468Z,24.23
2022-08-21T07:41:25.450Z,24.11
2022-08-21T07:43:53.681Z,23.95
2022-08-21T07:46:24.538Z,24.03
2022-08-21T07:48:53.770Z,24.00
2022-08-21T07:51:25.496Z,24.19
2022-08-21T07:53:54.789Z,24.05
2022-08-21T07:56:23.365Z,24.33
2022-08-21T07:58:50.955Z,24.29
2022-08-21T08:01:19.218Z,24.37
2022-08-21T08:03:46.826Z,24.37
2022-08-21T08:06:14.262Z,24.34
2022-08-21T08:08:43.037Z,24.01
2022-08-21T08:11:12.122Z,23.81
2022-08-21T08:13:42.083Z,23.83
2022-08-21T08:16:09.509Z,24.13
2022-08-21T08:18:36.875Z,24.46
2022-08-21T08:21:06.451Z,24.19
2022-08-21T08:23:34.584Z,24.20
2022-08-21T08:26:03.787Z,24.39
2022-08-21T08:28:32.872Z,24.27
2022-08-21T08:31:01.568Z,24.36
2022-08-21T08:33:29.004Z,24.60
2022-08-21T08:35:56.494Z,24.47
2022-08-21T08:38:26.060Z,24.49
2022-08-21T08:41:19.863Z,24.41
2022-08-21T08:43:55.406Z,24.26
2022-08-21T08:46:37.907Z,24.09
2022-08-21T08:49:14.744Z,24.27
2022-08-21T08:52:01.128Z,24.50
2022-08-21T08:54:46.034Z,24.31
2022-08-21T08:57:19.586Z,24.07
2022-08-21T08:59:51.722Z,24.20
2022-08-21T09:02:24.109Z,24.24
2022-08-21T09:04:53.623Z,24.33
2022-08-21T09:07:40.167Z,24.41
2022-08-21T09:10:19.710Z,24.43
2022-08-21T09:12:56.309Z,24.50
2022-08-21T09:15:26.812Z,24.50
2022-08-21T09:17:54.058Z,24.80
2022-08-21T09:20:30.569Z,24.67
2022-08-21T09:23:13.435Z,24.69
2022-08-21T09:25:57.307Z,24.60
2022-08-21T09:28:24.614Z,24.51
2022-08-21T09:30:56.745Z,24.61
2022-08-21T09:33:25.186Z,24.69
2022-08-21T09:35:58.812Z,24.72
2022-08-21T09:38:30.967Z,24.82
2022-08-21T09:41:05.594Z,24.87
2022-08-21T09:43:33.805Z,24.66
2022-08-21T09:46:24.114Z,24.93
2022-08-21T09:48:56.897Z,24.68
2022-08-21T09:51:33.473Z,24.78
2022-08-21T09:54:07.107Z,24.78
2022-08-21T09:57:00.640Z,24.73
2022-08-21T09:59:36.041Z,24.94
2022-08-21T10:02:27.256Z,25.06
2022-08-21T10:04:59.918Z,25.33
2022-08-21T10:07:30.700Z,25.56
2022-08-21T10:10:03.168Z,25.38
2022-08-21T10:12:49.844Z,25.33
2022-08-21T10:15:25.657Z,25.43
2022-08-21T10:18:21.772Z,25.52
2022-08-21T10:21:12.253Z,25.68
2022-08-21T10:23:53.809Z,25.79
2022-08-21T10:26:28.170Z,25.91
2022-08-21T10:29:04.957Z,25.94
2022-08-21T10:32:03.207Z,25.75
2022-08-21T10:34:48.638Z,25.93
2022-08-21T10:37:51.789Z,25.91
2022-08-21T10:40:50.321Z,25.87
2022-08-21T10:43:43.042Z,25.98
2022-08-21T10:46:22.596Z,26.26
2022-08-21T10:49:06.874Z,26.47
2022-08-21T10:51:53.580Z,26.75
2022-08-21T10:54:53.086Z,27.04
2022-08-21T10:57:34.932Z,26.71
2022-08-21T11:00:12.489Z,26.59
2022-08-21T11:02:52.577Z,26.44
2022-08-21T11:05:35.475Z,26.36
2022-08-21T11:08:22.850Z,26.35
2022-08-21T11:11:00.662Z,26.47
2022-08-21T11:13:50.452Z,26.65
2022-08-21T11:16:47.752Z,26.39
2022-08-21T11:19:24.079Z,26.38
2022-08-21T11:22:36.131Z,26.22
2022-08-21T11:25:22.933Z,26.16
2022-08-21T11:28:02.530Z,26.19
2022-08-21T11:31:11.081Z,26.59
2022-08-21T11:34:02.651Z,26.64
2022-08-21T11:36:29.942Z,26.14
2022-08-21T11:39:15.625Z,26.16
2022-08-21T11:41:55.833Z,26.17
2022-08-21T11:45:19.321Z,26.30
2022-08-21T11:48:07.747Z,26.67
2022-08-21T11:50:39.986Z,26.42
2022-08-21T11:53:14.778Z,26.38
2022-08-21T11:56:14.076Z,26.35
2022-08-21T11:58:48.807Z,26.30
2022-08-21T12:01:23.256Z,26.70
2022-08-21T12:04:05.478Z,26.69
2022-08-21T12:06:40.715Z,26.75
2022-08-21T12:09:30.720Z,26.72
2022-08-21T12:12:03.760Z,27.15
2022-08-21T12:14:48.634Z,26.89
2022-08-21T12:17:26.647Z,27.06
2022-08-21T12:20:17.969Z,26.85
2022-08-21T12:23:04.363Z,26.82
2022-08-21T12:25:41.923Z,26.80
2022-08-21T12:28:18.923Z,26.41
2022-08-21T12:30:49.786Z,26.41
2022-08-21T12:33:41.526Z,26.21
2022-08-21T12:36:22.547Z,26.12
2022-08-21T12:38:56.929Z,26.67
2022-08-21T12:41:33.416Z,26.31
2022-08-21T12:44:11.743Z,26.26
2022-08-21T12:46:52.051Z,26.81
2022-08-21T12:49:40.274Z,26.35
2022-08-21T12:52:33.600Z,26.63
2022-08-21T12:55:05.138Z,26.91
2022-08-21T12:57:33.736Z,26.47
2022-08-21T13:00:04.466Z,26.36
2022-08-21T13:02:41.005Z,26.09
2022-08-21T13:05:21.745Z,26.17
2022-08-21T13:07:50.219Z,26.09
2022-08-21T13:10:25.165Z,25.97
2022-08-21T13:12:58.262Z,26.09
2022-08-21T13:15:33.336Z,26.04
2022-08-21T13:18:05.289Z,26.16
2022-08-21T13:20:39.061Z,26.08
2022-08-21T13:23:29.160Z,25.81
2022-08-21T13:25:57.709Z,25.89
2022-08-21T13:28:34.176Z,25.71
2022-08-21T13:31:02.712Z,25.69
2022-08-21T13:33:37.579Z,25.77
2022-08-21T13:36:35.868Z,25.94
2022-08-21T13:39:06.022Z,25.94
2022-08-21T13:41:37.726Z,25.94
2022-08-21T13:44:41.217Z,26.00
2022-08-21T13:47:11.180Z,26.05
2022-08-21T13:49:42.779Z,26.17
2022-08-21T13:52:22.624Z,26.15
2022-08-21T13:55:02.478Z,26.31
2022-08-21T13:57:32.698Z,26.42
2022-08-21T14:00:31.246Z,26.47
2022-08-21T14:03:06.187Z,26.31
2022-08-21T14:05:38.483Z,26.32
2022-08-21T14:08:14.733Z,26.17
2022-08-21T14:10:57.500Z,26.38
2022-08-21T14:13:32.502Z,26.20
2022-08-21T14:16:15.279Z,26.15
2022-08-21T14:18:55.493Z,26.09
2022-08-21T14:21:34.530Z,26.14
2022-08-21T14:24:06.398Z,26.18
2022-08-21T14:26:37.621Z,26.18
2022-08-21T14:29:13.691Z,26.26
2022-08-21T14:31:44.186Z,26.26
2022-08-21T14:34:19.604Z,26.24
2022-08-21T14:36:51.162Z,26.10
2022-08-21T14:39:18.862Z,25.97
2022-08-21T14:41:49.063Z,25.95
2022-08-21T14:44:18.720Z,25.93
2022-08-21T14:46:56.471Z,26.20
2022-08-21T14:49:30.360Z,26.04
2022-08-21T14:51:59.243Z,26.02
2022-08-21T14:54:32.284Z,26.04
2022-08-21T14:57:11.588Z,26.06
2022-08-21T14:59:42.095Z,26.14
2022-08-21T15:02:11.001Z,26.04
2022-08-21T15:04:38.474Z,26.01
2022-08-21T15:07:06.372Z,26.08
2022-08-21T15:09:34.236Z,26.22
2022-08-21T15:12:04.051Z,26.25
2022-08-21T15:14:34.484Z,26.26
2022-08-21T15:17:01.904Z,26.29
2022-08-21T15:19:30.644Z,26.20
2022-08-21T15:21:58.757Z,26.29
2022-08-21T15:24:27.571Z,26.30
2022-08-21T15:26:57.116Z,26.20
2022-08-21T15:29:24.710Z,26.30
2022-08-21T15:32:02.935Z,26.14
2022-08-21T15:34:32.589Z,26.15
2022-08-21T15:37:01.341Z,25.97
2022-08-21T15:39:30.291Z,25.84
2022-08-21T15:42:00.078Z,25.80
2022-08-21T15:44:41.556Z,25.81
2022-08-21T15:47:16.519Z,25.92
2022-08-21T15:49:48.473Z,25.95
2022-08-21T15:52:18.597Z,25.93
2022-08-21T15:54:46.402Z,25.92
2022-08-21T15:57:17.569Z,25.85
2022-08-21T15:59:50.599Z,25.90
2022-08-21T16:02:27.663Z,25.91
2022-08-21T16:04:55.595Z,25.97
2022-08-21T16:07:22.889Z,25.97
2022-08-21T16:09:50.270Z,25.99
2022-08-21T16:12:25.573Z,25.98
2022-08-21T16:14:55.079Z,25.87
2022-08-21T16:17:28.378Z,25.90
2022-08-21T16:19:56.312Z,25.97
2022-08-21T16:22:23.730Z,25.93
2022-08-21T16:24:51.080Z,26.01
2022-08-21T16:27:19.467Z,25.97
2022-08-21T16:29:47.411Z,25.93
2022-08-21T16:32:15.441Z,25.95
2022-08-21T16:34:47.367Z,25.96
2022-08-21T16:37:24.076Z,25.81
2022-08-21T16:39:53.226Z,25.90
2022-08-21T16:42:24.392Z,25.88
2022-08-21T16:44:51.739Z,25.90
2022-08-21T16:47:26.351Z,25.90
2022-08-21T16:49:55.115Z,25.89
2022-08-21T16:52:22.378Z,25.80
2022-08-21T16:54:49.658Z,25.84
2022-08-21T16:57:17.109Z,25.77
2022-08-21T16:59:46.016Z,25.67
2022-08-21T17:02:29.485Z,25.64
2022-08-21T17:04:59.044Z,25.66
2022-08-21T17:07:30.273Z,25.63
2022-08-21T17:09:59.978Z,25.60
2022-08-21T17:12:27.454Z,25.59
2022-08-21T17:14:57.737Z,25.49
2022-08-21T17:17:25.632Z,25.56
2022-08-21T17:19:53.376Z,25.59
2022-08-21T17:22:21.825Z,25.62
2022-08-21T17:24:50.695Z,25.57
2022-08-21T17:27:26.818Z,25.45
2022-08-21T17:29:55.452Z,25.27
2022-08-21T17:32:24.309Z,25.34
2022-08-21T17:34:52.125Z,25.34
2022-08-21T17:37:26.258Z,25.38
2022-08-21T17:39:59.209Z,25.42
2022-08-21T17:42:29.798Z,25.38
2022-08-21T17:44:58.215Z,25.29
2022-08-21T17:47:26.472Z,25.08
2022-08-21T17:49:53.746Z,25.18
2022-08-21T17:52:21.271Z,25.16
2022-08-21T17:54:48.484Z,25.18
2022-08-21T17:57:22.785Z,25.02
2022-08-21T17:59:55.146Z,25.05
2022-08-21T18:02:26.962Z,24.93
2022-08-21T18:05:19.151Z,24.74
2022-08-21T18:07:47.156Z,24.89
2022-08-21T18:10:16.034Z,24.86
2022-08-21T18:12:48.737Z,24.79
2022-08-21T18:15:20.881Z,24.80
2022-08-21T18:17:52.261Z,24.76
2022-08-21T18:20:24.363Z,24.73
2022-08-21T18:22:53.525Z,24.56
2022-08-21T18:25:21.176Z,24.69
2022-08-21T18:27:52.706Z,24.56
2022-08-21T18:30:25.569Z,24.39
2022-08-21T18:32:54.869Z,24.39
2022-08-21T18:35:23.689Z,24.22
2022-08-21T18:37:54.804Z,24.25
2022-08-21T18:40:23.727Z,24.13
2022-08-21T18:42:55.872Z,24.13
2022-08-21T18:45:25.666Z,24.12
2022-08-21T18:47:58.299Z,24.21
2022-08-21T18:50:32.800Z,24.15
2022-08-21T18:53:08.261Z,24.17
2022-08-21T18:58:47.665Z,24.20
2022-08-21T19:01:15.122Z,24.22
2022-08-21T19:03:51.061Z,24.24
2022-08-21T19:06:20.543Z,24.15
2022-08-21T19:08:51.406Z,24.27
2022-08-21T19:11:23.478Z,24.39
2022-08-21T19:13:57.382Z,24.28
2022-08-21T19:16:25.024Z,24.61
2022-08-21T19:18:58.204Z,24.34
2022-08-21T19:21:28.473Z,24.04
2022-08-21T19:23:56.924Z,24.02
2022-08-21T19:26:29.235Z,24.08
2022-08-21T19:29:02.841Z,24.02
2022-08-21T19:31:34.028Z,23.85
2022-08-21T19:34:27.917Z,23.70
2022-08-21T19:36:59.349Z,23.63
2022-08-21T19:39:27.547Z,23.68
2022-08-21T19:41:59.716Z,24.18
2022-08-21T19:44:30.897Z,23.92
2022-08-21T19:47:05.569Z,23.81
2022-08-21T19:49:37.158Z,23.86
2022-08-21T19:52:13.051Z,23.77
2022-08-21T19:54:43.161Z,23.73
2022-08-21T19:57:13.274Z,23.51
2022-08-21T19:59:43.628Z,23.55
2022-08-21T20:02:14.574Z,23.66
2022-08-21T20:04:53.297Z,23.45
2022-08-21T20:07:26.670Z,23.48
2022-08-21T20:12:47.324Z,23.83
2022-08-21T20:15:22.038Z,23.63
2022-08-21T20:17:52.506Z,23.82
2022-08-21T20:20:22.289Z,23.71
2022-08-21T20:22:54.559Z,23.67
2022-08-21T20:25:26.538Z,23.28
2022-08-21T20:27:55.179Z,23.47
2022-08-21T20:30:22.842Z,23.38
2022-08-21T20:32:51.420Z,23.34
2022-08-21T20:35:20.402Z,23.55
2022-08-21T20:37:58.583Z,23.64
2022-08-21T20:43:16.165Z,23.52
2022-08-21T20:45:43.561Z,23.45
2022-08-21T20:48:28.456Z,23.41
2022-08-21T20:51:24.226Z,23.42
2022-08-21T20:54:32.132Z,23.23
2022-08-21T20:57:17.756Z,23.24
2022-08-21T21:00:08.097Z,23.07
2022-08-21T21:03:04.279Z,23.25
2022-08-21T21:05:41.777Z,23.05
2022-08-21T21:08:16.371Z,23.11
2022-08-21T21:11:02.812Z,23.15
2022-08-21T21:14:00.051Z,23.03
2022-08-21T21:16:30.343Z,22.96
2022-08-21T21:19:03.491Z,22.99
2022-08-21T21:21:54.170Z,23.02
2022-08-21T21:24:29.128Z,23.06
2022-08-21T21:27:11.856Z,23.17
2022-08-21T21:29:45.928Z,23.17
2022-08-21T21:32:17.958Z,23.36
2022-08-21T21:34:47.417Z,23.23
2022-08-21T21:37:59.568Z,23.23
2022-08-21T21:40:39.063Z,23.42
2022-08-21T21:43:43.576Z,23.54
2022-08-21T21:46:33.412Z,23.70
2022-08-21T21:49:20.910Z,23.69
2022-08-21T21:51:55.787Z,23.52
2022-08-21T21:54:43.358Z,23.55
2022-08-21T21:57:39.050Z,23.83
2022-08-21T22:00:19.512Z,23.57
2022-08-21T22:03:08.080Z,23.43
2022-08-21T22:05:56.384Z,23.42
2022-08-21T22:08:48.926Z,23.68
2022-08-21T22:12:10.992Z,23.05
2022-08-21T22:14:41.598Z,22.97
2022-08-21T22:17:41.334Z,22.92
2022-08-21T22:20:24.258Z,22.96
2022-08-21T22:22:55.953Z,22.96
2022-08-21T22:25:27.884Z,23.00
2022-08-21T22:28:06.941Z,23.06
2022-08-21T22:31:15.479Z,23.06
2022-08-21T22:34:14.244Z,23.05
2022-08-21T22:37:07.402Z,23.06
2022-08-21T22:39:44.009Z,23.17
2022-08-21T22:42:20.633Z,23.15
2022-08-21T22:44:57.221Z,23.21
2022-08-21T22:47:31.065Z,23.14
2022-08-21T22:50:03.965Z,23.19
2022-08-21T22:52:45.188Z,23.30
2022-08-21T22:55:18.300Z,23.08
2022-08-21T22:58:06.327Z,23.03
2022-08-21T23:00:49.665Z,22.96
2022-08-21T23:03:42.043Z,23.08
2022-08-21T23:06:40.651Z,23.22
2022-08-21T23:09:38.391Z,23.14
2022-08-21T23:12:24.054Z,23.15
2022-08-21T23:15:08.228Z,23.07
2022-08-21T23:17:53.948Z,23.19
2022-08-21T23:20:42.384Z,23.07
2022-08-21T23:23:34.967Z,23.18
2022-08-21T23:26:26.623Z,23.30
2022-08-21T23:29:32.148Z,23.17
2022-08-21T23:35:22.380Z,23.29
2022-08-21T23:37:52.460Z,23.18
2022-08-21T23:40:51.191Z,23.24
2022-08-21T23:43:42.088Z,23.15
2022-08-21T23:46:20.889Z,23.21
2022-08-21T23:49:22.156Z,23.23
2022-08-21T23:52:28.656Z,23.25
2022-08-21T23:55:32.104Z,23.37
2022-08-21T23:58:10.628Z,23.21
